createdAt,value
2019-02-05T00:05:06.247Z,18.77
2019-02-05T00:10:24.094Z,19.77
2019-02-05T00:15:41.563Z,17.80
2019-02-05T00:20:58.428Z,19.63
2019-02-05T00:26:15.218Z,19.13
2019-02-05T00:31:32.112Z,18.33
2019-02-05T00:36:48.883Z,17.13
2019-02-05T00:42:06.178Z,25.23
2019-02-05T00:47:23.272Z,26.37
2019-02-05T00:52:40.265Z,20.60
2019-02-05T00:57:57.677Z,19.03
2019-02-05T01:03:14.944Z,19.70
2019-02-05T01:08:31.897Z,18.70
2019-02-05T01:13:49.445Z,19.50
2019-02-05T01:19:07.135Z,18.17
2019-02-05T01:24:23.917Z,17.43
2019-02-05T01:29:40.939Z,19.13
2019-02-05T01:34:58.611Z,17.13
2019-02-05T01:40:15.777Z,19.30
2019-02-05T01:45:33.693Z,19.13
2019-02-05T01:50:50.794Z,18.67
2019-02-05T01:56:08.247Z,26.93
2019-02-05T02:01:25.737Z,26.85
2019-02-05T02:06:43.388Z,19.83
2019-02-05T02:12:00.412Z,20.37
2019-02-05T02:17:18.283Z,19.50
2019-02-05T02:22:35.344Z,19.07
2019-02-05T02:27:53.347Z,20.27
2019-02-05T02:33:10.294Z,20.50
2019-02-05T02:38:27.931Z,21.10
2019-02-05T02:43:45.563Z,20.33
2019-02-05T02:49:02.435Z,20.00
2019-02-05T02:54:19.248Z,18.57
2019-02-05T02:59:36.331Z,19.53
2019-02-05T03:04:53.129Z,19.87
2019-02-05T03:10:10.245Z,17.90
2019-02-05T03:15:27.500Z,22.20
2019-02-05T03:20:46.166Z,21.33
2019-02-05T03:26:03.022Z,20.53
2019-02-05T03:31:20.739Z,21.07
2019-02-05T03:36:38.442Z,19.50
2019-02-05T03:41:55.765Z,21.17
2019-02-05T03:47:13.212Z,20.20
2019-02-05T03:52:30.515Z,22.13
2019-02-05T03:57:47.909Z,19.97
2019-02-05T04:03:05.698Z,21.30
2019-02-05T04:08:23.426Z,19.77
2019-02-05T04:13:40.739Z,18.80
2019-02-05T04:18:58.017Z,20.20
2019-02-05T04:24:14.836Z,20.27
2019-02-05T04:29:31.941Z,22.10
2019-02-05T04:34:49.109Z,20.60
2019-02-05T04:40:06.081Z,19.87
2019-02-05T04:45:33.844Z,19.13
2019-02-05T04:50:42.747Z,18.53
2019-02-05T04:55:59.611Z,18.53
2019-02-05T05:01:17.057Z,19.63
2019-02-05T05:06:34.202Z,19.70
2019-02-05T05:11:50.958Z,19.27
2019-02-05T05:17:08.097Z,17.70
2019-02-05T05:22:25.080Z,17.57
2019-02-05T05:27:42.089Z,17.47
2019-02-05T05:32:59.634Z,14.20
2019-02-05T05:38:17.394Z,15.57
2019-02-05T05:43:34.725Z,14.07
2019-02-05T05:48:51.748Z,14.47
2019-02-05T05:54:09.122Z,14.40
2019-02-05T05:59:26.650Z,14.33
2019-02-05T06:04:43.526Z,15.27
2019-02-05T06:10:01.917Z,16.43
2019-02-05T06:15:19.252Z,15.30
2019-02-05T06:20:36.484Z,21.30
2019-02-05T06:25:54.088Z,20.70
2019-02-05T06:31:11.468Z,16.47
2019-02-05T06:36:28.417Z,14.70
2019-02-05T06:41:45.407Z,15.60
2019-02-05T06:47:02.334Z,13.33
2019-02-05T06:52:19.086Z,14.10
2019-02-05T06:57:37.348Z,13.97
2019-02-05T07:02:54.101Z,13.47
2019-02-05T07:08:11.251Z,14.90
2019-02-05T07:13:28.142Z,21.57
2019-02-05T07:18:45.645Z,21.37
2019-02-05T07:24:03.693Z,16.23
2019-02-05T07:29:20.779Z,16.63
2019-02-05T07:34:37.831Z,16.77
2019-02-05T07:39:55.588Z,23.12
2019-02-05T07:45:12.638Z,19.13
2019-02-05T07:50:29.951Z,22.10
2019-02-05T07:55:46.907Z,21.68
2019-02-05T08:01:04.472Z,23.00
2019-02-05T08:06:21.772Z,16.87
2019-02-05T08:11:41.269Z,17.73
2019-02-05T08:16:58.245Z,24.05
2019-02-05T08:22:15.042Z,17.57
2019-02-05T08:27:32.167Z,18.50
2019-02-05T08:32:49.294Z,21.48
2019-02-05T08:38:06.715Z,23.32
2019-02-05T08:43:23.587Z,18.57
2019-02-05T08:48:41.163Z,17.83
2019-02-05T08:53:58.632Z,17.43
2019-02-05T08:59:16.314Z,18.10
2019-02-05T09:04:33.601Z,15.07
2019-02-05T09:09:50.837Z,16.27
2019-02-05T09:15:08.582Z,15.50
2019-02-05T09:20:25.455Z,15.40
2019-02-05T09:25:42.491Z,15.87
2019-02-05T09:31:01.443Z,13.13
2019-02-05T09:36:18.902Z,12.80
2019-02-05T09:41:35.814Z,13.03
2019-02-05T09:46:52.872Z,11.17
2019-02-05T09:52:09.996Z,9.90
2019-02-05T09:57:26.905Z,10.03
2019-02-05T10:02:44.462Z,10.67
2019-02-05T10:08:02.260Z,9.70
2019-02-05T10:13:19.318Z,7.70
2019-02-05T10:18:36.230Z,7.13
2019-02-05T10:23:53.038Z,6.40
2019-02-05T10:29:10.118Z,8.20
2019-02-05T10:34:34.321Z,6.50
2019-02-05T10:39:46.548Z,7.20
2019-02-05T10:45:04.422Z,7.20
2019-02-05T10:50:21.441Z,7.53
2019-02-05T10:55:39.071Z,7.37
2019-02-05T11:00:56.169Z,6.90
2019-02-05T11:06:13.796Z,6.67
2019-02-05T11:11:31.231Z,6.73
2019-02-05T11:16:48.371Z,6.60
2019-02-05T11:22:05.941Z,6.10
2019-02-05T11:27:23.645Z,6.17
2019-02-05T11:32:40.584Z,5.47
2019-02-05T11:37:57.599Z,5.20
2019-02-05T11:43:14.395Z,5.27
2019-02-05T11:48:31.715Z,5.43
2019-02-05T11:53:49.221Z,5.70
2019-02-05T11:59:06.197Z,6.13
2019-02-05T12:04:23.314Z,5.83
2019-02-05T12:09:40.621Z,5.57
2019-02-05T12:14:57.760Z,5.90
2019-02-05T12:20:14.988Z,6.00
2019-02-05T12:25:32.171Z,6.50
2019-02-05T12:30:49.582Z,7.53
2019-02-05T12:36:06.623Z,6.93
2019-02-05T12:41:24.321Z,7.97
2019-02-05T12:46:42.079Z,7.80
2019-02-05T12:51:59.314Z,10.50
2019-02-05T12:57:16.614Z,9.73
2019-02-05T13:02:33.831Z,13.03
2019-02-05T13:07:50.713Z,11.13
2019-02-05T13:13:07.751Z,9.83
2019-02-05T13:18:24.653Z,9.03
2019-02-05T13:23:41.806Z,8.40
2019-02-05T13:28:59.229Z,10.13
2019-02-05T13:34:16.325Z,10.13
2019-02-05T13:39:33.753Z,10.23
2019-02-05T13:44:50.811Z,9.37
2019-02-05T13:50:08.312Z,9.90
2019-02-05T13:55:25.143Z,9.23
2019-02-05T14:00:42.283Z,9.90
2019-02-05T14:05:59.889Z,10.00
2019-02-05T14:11:16.883Z,8.77
2019-02-05T14:16:33.698Z,10.03
2019-02-05T14:21:50.796Z,9.67
2019-02-05T14:27:08.117Z,11.27
2019-02-05T14:32:25.815Z,9.17
2019-02-05T14:37:43.067Z,10.37
2019-02-05T14:43:00.348Z,9.10
2019-02-05T14:48:17.933Z,10.67
2019-02-05T14:53:35.542Z,10.33
2019-02-05T14:58:52.668Z,9.97
2019-02-05T15:04:09.432Z,9.47
2019-02-05T15:09:26.704Z,10.87
2019-02-05T15:14:43.830Z,10.27
2019-02-05T15:20:01.765Z,7.70
2019-02-05T15:25:18.764Z,7.87
2019-02-05T15:30:36.838Z,8.87
2019-02-05T15:35:57.281Z,7.53
2019-02-05T15:41:15.064Z,7.90
2019-02-05T15:46:32.806Z,7.20
2019-02-05T15:51:49.953Z,7.30
2019-02-05T15:57:07.239Z,7.27
2019-02-05T16:02:24.399Z,7.27
2019-02-05T16:07:42.089Z,8.50
2019-02-05T16:12:58.847Z,8.10
2019-02-05T16:18:15.727Z,8.57
2019-02-05T16:23:33.036Z,10.13
2019-02-05T16:28:50.362Z,10.13
2019-02-05T16:34:07.919Z,14.03
2019-02-05T16:39:24.912Z,14.77
2019-02-05T16:44:42.134Z,9.73
2019-02-05T16:49:59.497Z,9.07
2019-02-05T16:55:16.559Z,14.70
2019-02-05T17:00:34.355Z,16.77
2019-02-05T17:05:51.287Z,17.13
2019-02-05T17:11:08.055Z,12.77
2019-02-05T17:16:25.350Z,12.53
2019-02-05T17:21:42.613Z,13.57
2019-02-05T17:26:59.888Z,13.07
2019-02-05T17:32:16.925Z,12.33
2019-02-05T17:37:34.124Z,19.60
2019-02-05T17:42:52.013Z,19.30
2019-02-05T17:48:09.294Z,20.08
2019-02-05T17:53:26.615Z,20.77
2019-02-05T17:58:44.029Z,21.60
2019-02-05T18:04:01.143Z,15.33
2019-02-05T18:09:18.661Z,15.53
2019-02-05T18:14:36.166Z,22.17
2019-02-05T18:19:53.720Z,23.80
2019-02-05T18:25:11.122Z,16.93
2019-02-05T18:30:28.177Z,25.73
2019-02-05T18:35:45.481Z,24.43
2019-02-05T18:41:03.247Z,16.90
2019-02-05T18:46:21.175Z,24.95
2019-02-05T18:51:38.952Z,20.77
2019-02-05T18:56:56.293Z,19.80
2019-02-05T19:02:13.387Z,13.97
2019-02-05T19:07:30.562Z,21.15
2019-02-05T19:12:48.168Z,13.63
2019-02-05T19:18:05.552Z,13.47
2019-02-05T19:23:22.848Z,14.07
2019-02-05T19:28:41.537Z,13.27
2019-02-05T19:33:58.408Z,12.80
2019-02-05T19:39:16.407Z,12.63
2019-02-05T19:44:33.711Z,12.03
2019-02-05T19:49:54.104Z,12.07
2019-02-05T19:55:11.693Z,12.53
2019-02-05T20:00:29.575Z,11.97
2019-02-05T20:05:46.719Z,12.50
2019-02-05T20:11:04.001Z,9.27
2019-02-05T20:16:21.070Z,9.10
2019-02-05T20:21:37.974Z,7.13
2019-02-05T20:26:55.645Z,7.20
2019-02-05T20:32:13.045Z,7.60
2019-02-05T20:37:29.857Z,5.80
2019-02-05T20:42:47.056Z,5.70
2019-02-05T20:48:04.095Z,4.57
2019-02-05T20:53:21.376Z,5.67
2019-02-05T20:58:39.092Z,3.90
2019-02-05T21:04:01.170Z,3.77
2019-02-05T21:09:15.109Z,4.97
2019-02-05T21:14:32.408Z,4.37
2019-02-05T21:19:49.810Z,5.47
2019-02-05T21:25:06.657Z,6.78
2019-02-05T21:30:24.279Z,6.67
2019-02-05T21:35:41.490Z,4.37
2019-02-05T21:40:58.986Z,4.43
2019-02-05T21:46:16.094Z,4.33
2019-02-05T21:51:40.576Z,5.33
2019-02-05T21:56:51.783Z,4.90
2019-02-05T22:02:08.794Z,4.23
2019-02-05T22:07:26.743Z,5.43
2019-02-05T22:12:44.758Z,4.77
2019-02-05T22:18:01.461Z,5.47
2019-02-05T22:23:19.162Z,6.07
2019-02-05T22:28:35.995Z,5.70
2019-02-05T22:33:53.282Z,4.57
2019-02-05T22:39:10.870Z,4.20
2019-02-05T22:44:28.423Z,4.20
2019-02-05T22:49:46.757Z,4.47
2019-02-05T22:55:03.780Z,4.33
2019-02-05T23:00:20.725Z,4.13
2019-02-05T23:05:37.610Z,4.47
2019-02-05T23:11:03.182Z,3.93
2019-02-05T23:16:13.355Z,4.67
2019-02-05T23:21:30.746Z,3.97
2019-02-05T23:26:48.027Z,2.90
2019-02-05T23:32:04.989Z,3.53
2019-02-05T23:37:22.690Z,3.47
2019-02-05T23:42:40.213Z,3.23
2019-02-05T23:47:57.102Z,3.83
2019-02-05T23:53:14.840Z,3.77
2019-02-05T23:58:31.729Z,3.67
